createdAt,value
2022-10-31T00:00:30.620Z,971.5200
2022-10-31T00:01:32.763Z,971.5000
2022-10-31T00:02:35.114Z,971.5200
2022-10-31T00:03:35.151Z,971.4800
2022-10-31T00:04:37.427Z,971.4800
2022-10-31T00:05:39.756Z,971.4800
2022-10-31T00:06:42.028Z,971.4800
2022-10-31T00:07:44.305Z,971.4800
2022-10-31T00:08:46.542Z,971.4800
2022-10-31T00:09:48.798Z,971.4600
2022-10-31T00:10:51.079Z,971.4400
2022-10-31T00:11:53.312Z,971.4400
2022-10-31T00:12:55.547Z,971.4400
2022-10-31T00:13:57.736Z,971.4200
2022-10-31T00:15:00.000Z,971.4000
2022-10-31T00:16:02.241Z,971.4200
2022-10-31T00:17:04.368Z,971.4400
2022-10-31T00:18:06.562Z,971.4400
2022-10-31T00:19:08.789Z,971.4600
2022-10-31T00:20:08.879Z,971.4600
2022-10-31T00:21:11.110Z,971.4800
2022-10-31T00:22:13.212Z,971.4600
2022-10-31T00:23:15.361Z,971.4600
2022-10-31T00:24:17.593Z,971.4600
2022-10-31T00:25:19.825Z,971.4600
2022-10-31T00:26:22.104Z,971.4600
2022-10-31T00:27:24.231Z,971.4400
2022-10-31T00:28:26.469Z,971.4600
2022-10-31T00:29:28.706Z,971.4400
2022-10-31T00:30:28.811Z,971.4200
2022-10-31T00:31:31.029Z,971.4200
2022-10-31T00:32:33.202Z,971.4000
2022-10-31T00:33:35.402Z,971.4000
2022-10-31T00:34:37.636Z,971.4200
2022-10-31T00:35:37.740Z,971.3800
2022-10-31T00:36:40.019Z,971.3600
2022-10-31T00:37:42.249Z,971.3800
2022-10-31T00:38:44.499Z,971.3800
2022-10-31T00:39:44.610Z,971.4000
2022-10-31T00:40:46.866Z,971.3800
2022-10-31T00:41:49.159Z,971.4000
2022-10-31T00:42:51.447Z,971.3800
2022-10-31T00:43:53.634Z,971.4000
2022-10-31T00:44:55.886Z,971.4200
2022-10-31T00:47:28.457Z,971.4000
2022-10-31T00:48:30.612Z,971.4000
2022-10-31T00:49:32.879Z,971.4200
2022-10-31T00:50:35.158Z,971.4200
2022-10-31T00:51:37.413Z,971.4600
2022-10-31T00:52:39.690Z,971.4600
2022-10-31T00:53:41.927Z,971.4600
2022-10-31T00:54:42.046Z,971.4400
2022-10-31T00:55:44.281Z,971.4400
2022-10-31T00:56:46.482Z,971.4200
2022-10-31T00:57:48.743Z,971.4200
2022-10-31T00:58:50.981Z,971.4600
2022-10-31T00:59:53.252Z,971.4400
2022-10-31T01:00:55.596Z,971.4400
2022-10-31T01:01:57.925Z,971.4400
2022-10-31T01:02:58.553Z,971.4400
2022-10-31T01:04:00.258Z,971.4400
2022-10-31T01:05:02.542Z,971.4800
2022-10-31T01:06:04.835Z,971.4600
2022-10-31T01:07:07.125Z,971.4400
2022-10-31T01:08:09.457Z,971.4400
2022-10-31T01:09:11.726Z,971.4400
2022-10-31T01:10:13.979Z,971.4400
2022-10-31T01:11:14.103Z,971.4600
2022-10-31T01:12:16.378Z,971.4600
2022-10-31T01:13:18.738Z,971.4600
2022-10-31T01:14:20.902Z,971.4400
2022-10-31T01:15:23.134Z,971.4200
2022-10-31T01:16:25.362Z,971.4400
2022-10-31T01:17:27.601Z,971.4200
2022-10-31T01:18:29.882Z,971.4200
2022-10-31T01:19:32.094Z,971.4400
2022-10-31T01:20:34.255Z,971.4200
2022-10-31T01:21:36.497Z,971.4000
2022-10-31T01:22:38.731Z,971.4000
2022-10-31T01:23:40.987Z,971.4200
2022-10-31T01:24:43.184Z,971.4200
2022-10-31T01:25:45.449Z,971.4200
2022-10-31T01:26:47.731Z,971.4000
2022-10-31T01:27:50.008Z,971.4000
2022-10-31T01:28:52.327Z,971.4200
2022-10-31T01:29:52.433Z,971.3600
2022-10-31T01:30:54.711Z,971.3600
2022-10-31T01:31:57.003Z,971.3800
2022-10-31T01:32:59.625Z,971.3800
2022-10-31T01:34:01.635Z,971.4000
2022-10-31T01:35:03.876Z,971.4000
2022-10-31T01:36:06.177Z,971.3400
2022-10-31T01:37:06.331Z,971.3600
2022-10-31T01:38:08.630Z,971.3200
2022-10-31T01:39:10.978Z,971.3200
2022-10-31T01:40:13.236Z,971.3000
2022-10-31T01:41:15.523Z,971.3000
2022-10-31T01:42:17.816Z,971.2800
2022-10-31T01:44:20.275Z,971.2600
2022-10-31T01:45:22.516Z,971.2800
2022-10-31T01:46:24.765Z,971.2800
2022-10-31T01:47:27.030Z,971.3000
2022-10-31T01:48:29.277Z,971.2600
2022-10-31T01:49:31.559Z,971.2600
2022-10-31T01:50:33.700Z,971.2600
2022-10-31T01:51:35.942Z,971.2600
2022-10-31T01:52:38.140Z,971.2600
2022-10-31T01:53:40.346Z,971.2600
2022-10-31T01:54:40.482Z,971.2800
2022-10-31T01:55:42.696Z,971.2800
2022-10-31T01:56:44.944Z,971.2800
2022-10-31T01:57:47.197Z,971.2600
2022-10-31T01:58:49.438Z,971.2600
2022-10-31T01:59:51.721Z,971.2600
2022-10-31T02:00:53.944Z,971.2500
2022-10-31T02:01:56.263Z,971.2500
2022-10-31T02:02:58.759Z,971.2500
2022-10-31T02:04:00.594Z,971.2300
2022-10-31T02:05:00.746Z,971.2600
2022-10-31T02:06:02.932Z,971.2600
2022-10-31T02:07:05.183Z,971.2500
2022-10-31T02:08:07.439Z,971.2300
2022-10-31T02:09:09.676Z,971.2300
2022-10-31T02:10:11.954Z,971.2000
2022-10-31T02:11:14.168Z,971.1800
2022-10-31T02:12:16.419Z,971.2000
2022-10-31T02:13:18.696Z,971.1800
2022-10-31T02:14:20.859Z,971.1800
2022-10-31T02:15:23.111Z,971.1800
2022-10-31T02:16:23.164Z,971.1700
2022-10-31T02:17:25.381Z,971.1700
2022-10-31T02:18:27.626Z,971.1500
2022-10-31T02:19:29.887Z,971.1700
2022-10-31T02:20:32.205Z,971.1500
2022-10-31T02:21:34.378Z,971.1500
2022-10-31T02:22:36.615Z,971.1500
2022-10-31T02:23:38.827Z,971.1500
2022-10-31T02:24:41.043Z,971.1300
2022-10-31T02:25:43.301Z,971.1500
2022-10-31T02:26:43.392Z,971.1300
2022-10-31T02:27:45.630Z,971.1500
2022-10-31T02:28:47.840Z,971.1500
2022-10-31T02:29:50.094Z,971.1500
2022-10-31T02:30:52.357Z,971.1300
2022-10-31T02:31:54.583Z,971.1300
2022-10-31T02:32:56.991Z,971.1100
2022-10-31T02:33:59.050Z,971.0700
2022-10-31T02:35:01.287Z,971.0700
2022-10-31T02:36:03.569Z,971.0700
2022-10-31T02:37:05.802Z,971.0700
2022-10-31T02:38:05.941Z,971.0700
2022-10-31T02:39:08.157Z,971.0500
2022-10-31T02:40:10.392Z,971.0700
2022-10-31T02:41:12.716Z,971.0700
2022-10-31T02:42:14.941Z,971.0700
2022-10-31T02:43:17.238Z,971.0700
2022-10-31T02:44:19.402Z,971.0700
2022-10-31T02:45:21.661Z,971.0500
2022-10-31T02:46:23.959Z,971.0700
2022-10-31T02:47:24.056Z,971.0700
2022-10-31T02:48:26.318Z,971.0900
2022-10-31T02:49:28.575Z,971.0900
2022-10-31T02:50:30.836Z,971.1300
2022-10-31T02:51:33.148Z,971.1100
2022-10-31T02:52:35.372Z,971.1100
2022-10-31T02:53:37.612Z,971.1300
2022-10-31T02:54:39.872Z,971.1100
2022-10-31T02:55:42.168Z,971.0900
2022-10-31T02:56:44.441Z,971.0700
2022-10-31T02:57:46.712Z,971.0500
2022-10-31T02:58:49.007Z,971.0500
2022-10-31T02:59:51.265Z,971.0500
2022-10-31T03:00:53.632Z,971.0700
2022-10-31T03:01:53.874Z,971.0500
2022-10-31T03:02:55.955Z,971.0700
2022-10-31T03:03:58.215Z,971.0900
2022-10-31T03:05:00.569Z,971.0900
2022-10-31T03:06:02.850Z,971.0900
2022-10-31T03:07:05.237Z,971.1100
2022-10-31T03:08:07.465Z,971.0900
2022-10-31T03:09:07.665Z,971.0900
2022-10-31T03:10:09.974Z,971.0700
2022-10-31T03:11:12.295Z,971.0500
2022-10-31T03:12:14.656Z,971.0300
2022-10-31T03:13:16.993Z,971.0300
2022-10-31T03:14:19.249Z,971.0300
2022-10-31T03:15:19.382Z,971.0300
2022-10-31T03:16:21.618Z,970.9900
2022-10-31T03:17:23.901Z,970.9900
2022-10-31T03:18:26.139Z,970.9700
2022-10-31T03:19:28.396Z,970.9700
2022-10-31T03:20:30.618Z,970.9500
2022-10-31T03:21:32.882Z,970.9500
2022-10-31T03:22:35.218Z,970.9700
2022-10-31T03:23:37.399Z,970.9700
2022-10-31T03:24:37.541Z,970.9700
2022-10-31T03:25:39.815Z,970.9700
2022-10-31T03:26:42.087Z,970.9700
2022-10-31T03:27:44.384Z,970.9900
2022-10-31T03:28:46.594Z,970.9700
2022-10-31T03:29:48.878Z,970.9700
2022-10-31T03:30:51.149Z,970.9500
2022-10-31T03:31:51.285Z,970.9700
2022-10-31T03:32:53.601Z,970.9700
2022-10-31T03:33:55.920Z,970.9100
2022-10-31T03:34:58.201Z,970.9500
2022-10-31T03:36:00.516Z,970.9300
2022-10-31T03:37:02.831Z,970.9500
2022-10-31T03:38:06.774Z,970.9700
2022-10-31T03:39:05.264Z,970.9500
2022-10-31T03:40:07.530Z,970.9500
2022-10-31T03:41:09.827Z,970.9300
2022-10-31T03:42:12.163Z,970.9500
2022-10-31T03:43:14.534Z,970.9500
2022-10-31T03:44:16.744Z,970.9300
2022-10-31T03:45:16.884Z,970.9300
2022-10-31T03:46:19.162Z,970.9300
2022-10-31T03:47:21.404Z,970.9100
2022-10-31T03:48:23.677Z,970.8900
2022-10-31T03:49:25.937Z,970.9100
2022-10-31T03:50:28.202Z,970.8900
2022-10-31T03:51:30.479Z,970.8700
2022-10-31T03:52:32.751Z,970.8900
2022-10-31T03:53:32.966Z,970.8900
2022-10-31T03:54:35.232Z,970.8700
2022-10-31T03:55:35.420Z,970.8700
2022-10-31T03:56:37.745Z,970.8500
2022-10-31T03:57:40.034Z,970.8300
2022-10-31T03:58:42.342Z,970.8100
2022-10-31T03:59:44.635Z,970.7800
2022-10-31T04:00:44.818Z,970.7800
2022-10-31T04:01:47.430Z,970.7800
2022-10-31T04:02:49.495Z,970.7800
2022-10-31T04:03:51.788Z,970.7800
2022-10-31T04:04:54.153Z,970.7800
2022-10-31T04:05:56.396Z,970.7800
2022-10-31T04:06:58.679Z,970.7800
2022-10-31T04:08:00.976Z,970.7800
2022-10-31T04:09:03.369Z,970.7900
2022-10-31T04:10:05.626Z,970.7800
2022-10-31T04:11:07.956Z,970.7900
2022-10-31T04:12:08.133Z,970.7600
2022-10-31T04:13:10.488Z,970.7800
2022-10-31T04:14:12.809Z,970.7800
2022-10-31T04:15:15.072Z,970.7600
2022-10-31T04:16:17.571Z,970.7300
2022-10-31T04:17:17.556Z,970.7800
2022-10-31T04:18:19.835Z,970.7600
2022-10-31T04:19:22.177Z,970.7800
2022-10-31T04:20:24.463Z,970.7900
2022-10-31T04:21:26.773Z,970.8100
2022-10-31T04:22:29.120Z,970.8100
2022-10-31T04:23:31.419Z,970.8300
2022-10-31T04:24:31.620Z,970.7900
2022-10-31T04:25:33.892Z,970.7900
2022-10-31T04:26:36.221Z,970.7900
2022-10-31T04:27:38.488Z,970.7900
2022-10-31T04:28:40.730Z,970.7800
2022-10-31T04:29:45.539Z,970.7800
2022-10-31T04:30:45.231Z,970.7900
2022-10-31T04:31:45.395Z,970.7800
2022-10-31T04:32:47.709Z,970.7600
2022-10-31T04:33:49.998Z,970.7300
2022-10-31T04:34:52.290Z,970.7300
2022-10-31T04:35:54.545Z,970.7000
2022-10-31T04:36:56.835Z,970.7100
2022-10-31T04:37:59.159Z,970.7100
2022-10-31T04:39:01.405Z,970.7600
2022-10-31T04:40:03.751Z,970.7800
2022-10-31T04:41:06.008Z,970.7800
2022-10-31T04:42:08.280Z,970.7900
2022-10-31T04:43:10.640Z,970.7600
2022-10-31T04:44:12.766Z,970.7800
2022-10-31T04:45:18.368Z,970.7800
2022-10-31T04:46:17.221Z,970.7900
2022-10-31T04:47:17.305Z,970.7900
2022-10-31T04:48:19.504Z,970.7900
2022-10-31T04:49:21.751Z,970.7900
2022-10-31T04:50:24.064Z,970.7800
2022-10-31T04:51:26.336Z,970.7900
2022-10-31T04:52:28.647Z,970.7800
2022-10-31T04:53:30.957Z,970.7600
2022-10-31T04:54:33.260Z,970.7600
2022-10-31T04:55:33.433Z,970.7300
2022-10-31T04:56:35.666Z,970.7300
2022-10-31T04:57:37.938Z,970.7000
2022-10-31T04:58:40.233Z,970.7000
2022-10-31T04:59:42.526Z,970.7000
2022-10-31T05:00:44.885Z,970.7000
2022-10-31T05:01:47.197Z,970.7000
2022-10-31T05:02:47.229Z,970.6800
2022-10-31T05:03:49.529Z,970.6600
2022-10-31T05:04:51.838Z,970.6400
2022-10-31T05:05:54.079Z,970.6200
2022-10-31T05:06:56.188Z,970.6000
2022-10-31T05:07:58.398Z,970.6000
2022-10-31T05:09:00.600Z,970.5800
2022-10-31T05:10:02.794Z,970.6000
2022-10-31T05:11:05.033Z,970.6200
2022-10-31T05:12:07.162Z,970.6200
2022-10-31T05:13:09.411Z,970.6200
2022-10-31T05:14:11.588Z,970.6000
2022-10-31T05:15:11.671Z,970.6000
2022-10-31T05:16:13.964Z,970.5800
2022-10-31T05:17:16.188Z,970.5800
2022-10-31T05:18:18.438Z,970.5600
2022-10-31T05:19:20.704Z,970.5400
2022-10-31T05:20:22.977Z,970.5400
2022-10-31T05:21:25.257Z,970.5200
2022-10-31T05:22:27.502Z,970.5200
2022-10-31T05:23:29.750Z,970.5200
2022-10-31T05:24:29.871Z,970.5400
2022-10-31T05:25:32.156Z,970.5200
2022-10-31T05:26:34.537Z,970.5400
2022-10-31T05:27:36.797Z,970.5200
2022-10-31T05:28:39.116Z,970.5400
2022-10-31T05:29:41.433Z,970.5200
2022-10-31T05:30:41.613Z,970.5000
2022-10-31T05:31:43.961Z,970.5000
2022-10-31T05:32:46.242Z,970.4800
2022-10-31T05:33:48.540Z,970.4600
2022-10-31T05:34:50.880Z,970.4600
2022-10-31T05:35:53.166Z,970.4400
2022-10-31T05:36:55.524Z,970.4600
2022-10-31T05:37:55.663Z,970.4200
2022-10-31T05:38:57.995Z,970.4600
2022-10-31T05:40:05.311Z,970.4200
2022-10-31T05:41:00.509Z,970.4200
2022-10-31T05:42:02.873Z,970.4200
2022-10-31T05:43:05.136Z,970.4200
2022-10-31T05:44:07.464Z,970.4200
2022-10-31T05:45:09.745Z,970.4200
2022-10-31T05:46:11.980Z,970.4000
2022-10-31T05:47:14.210Z,970.4400
2022-10-31T05:48:16.443Z,970.4200
2022-10-31T05:49:16.567Z,970.4400
2022-10-31T05:50:18.883Z,970.4200
2022-10-31T05:51:21.188Z,970.4200
2022-10-31T05:52:23.500Z,970.4400
2022-10-31T05:53:25.714Z,970.4000
2022-10-31T05:54:27.994Z,970.4000
2022-10-31T05:55:30.257Z,970.4000
2022-10-31T05:56:32.543Z,970.4000
2022-10-31T05:57:32.722Z,970.4000
2022-10-31T05:58:34.978Z,970.4000
2022-10-31T05:59:37.246Z,970.3800
2022-10-31T06:00:39.530Z,970.3800
2022-10-31T06:01:41.877Z,970.3600
2022-10-31T06:02:44.093Z,970.3600
2022-10-31T06:03:46.434Z,970.3200
2022-10-31T06:04:46.655Z,970.3200
2022-10-31T06:05:52.285Z,970.3100
2022-10-31T06:06:51.019Z,970.3100
2022-10-31T06:07:53.318Z,970.3100
2022-10-31T06:08:55.568Z,970.3100
2022-10-31T06:09:57.862Z,970.3100
2022-10-31T06:11:00.104Z,970.3100
2022-10-31T06:12:02.363Z,970.2900
2022-10-31T06:13:02.523Z,970.2900
2022-10-31T06:14:04.750Z,970.3200
2022-10-31T06:15:07.012Z,970.3200
2022-10-31T06:16:09.276Z,970.3600
2022-10-31T06:17:11.571Z,970.3600
2022-10-31T06:18:13.890Z,970.3800
2022-10-31T06:19:16.069Z,970.4000
2022-10-31T06:20:18.352Z,970.3800
2022-10-31T06:21:19.227Z,970.3600
2022-10-31T06:22:20.781Z,970.3800
2022-10-31T06:23:23.105Z,970.3800
2022-10-31T06:24:25.315Z,970.3600
2022-10-31T06:25:27.602Z,970.3600
2022-10-31T06:26:29.859Z,970.3800
2022-10-31T06:27:30.007Z,970.3800
2022-10-31T06:28:32.385Z,970.3800
2022-10-31T06:29:34.643Z,970.3800
2022-10-31T06:30:36.944Z,970.3600
2022-10-31T06:31:39.244Z,970.3600
2022-10-31T06:32:41.508Z,970.4000
2022-10-31T06:33:43.812Z,970.3400
2022-10-31T06:34:46.065Z,970.4000
2022-10-31T06:35:46.237Z,970.3600
2022-10-31T06:36:48.558Z,970.3400
2022-10-31T06:37:50.864Z,970.3400
2022-10-31T06:38:53.199Z,970.3800
2022-10-31T06:39:55.488Z,970.3200
2022-10-31T06:40:57.790Z,970.3600
2022-10-31T06:41:57.948Z,970.3400
2022-10-31T06:43:00.244Z,970.2900
2022-10-31T06:44:06.382Z,970.3400
2022-10-31T06:45:04.855Z,970.3200
2022-10-31T06:46:07.170Z,970.3400
2022-10-31T06:47:09.467Z,970.3200
2022-10-31T06:48:17.203Z,970.3400
2022-10-31T06:49:11.898Z,970.3400
2022-10-31T06:50:14.138Z,970.3100
2022-10-31T06:51:16.412Z,970.3100
2022-10-31T06:52:18.678Z,970.3200
2022-10-31T06:53:21.004Z,970.2700
2022-10-31T06:54:21.144Z,970.2700
2022-10-31T06:55:23.347Z,970.2700
2022-10-31T06:56:25.574Z,970.3100
2022-10-31T06:57:27.795Z,970.3100
2022-10-31T06:58:29.987Z,970.3100
2022-10-31T06:59:32.211Z,970.3200
2022-10-31T07:00:34.401Z,970.3200
2022-10-31T07:01:36.757Z,970.3200
2022-10-31T07:02:38.859Z,970.3600
2022-10-31T07:03:41.119Z,970.4200
2022-10-31T07:04:43.382Z,970.4400
2022-10-31T07:05:45.590Z,970.4600
2022-10-31T07:06:50.903Z,970.4600
2022-10-31T07:07:47.948Z,970.4400
2022-10-31T07:08:50.194Z,970.4600
2022-10-31T07:09:52.501Z,970.4400
2022-10-31T07:10:54.759Z,970.4400
2022-10-31T07:11:57.053Z,970.4600
2022-10-31T07:12:59.612Z,970.4400
2022-10-31T07:14:01.583Z,970.4400
2022-10-31T07:15:03.845Z,970.4400
2022-10-31T07:16:03.892Z,970.4400
2022-10-31T07:17:06.097Z,970.4600
2022-10-31T07:18:08.282Z,970.4400
2022-10-31T07:19:10.515Z,970.4200
2022-10-31T07:20:12.840Z,970.4400
2022-10-31T07:21:15.016Z,970.4600
2022-10-31T07:22:17.187Z,970.4600
2022-10-31T07:23:19.429Z,970.4600
2022-10-31T07:24:21.623Z,970.5200
2022-10-31T07:25:23.912Z,970.5400
2022-10-31T07:26:26.103Z,970.5400
2022-10-31T07:27:28.318Z,970.5400
2022-10-31T07:28:28.408Z,970.5400
2022-10-31T07:29:30.623Z,970.5400
2022-10-31T07:30:32.909Z,970.5600
2022-10-31T07:31:35.113Z,970.5600
2022-10-31T07:32:37.352Z,970.6200
2022-10-31T07:33:39.563Z,970.6000
2022-10-31T07:34:46.524Z,970.6200
2022-10-31T07:35:44.062Z,970.6200
2022-10-31T07:36:46.271Z,970.6400
2022-10-31T07:37:48.470Z,970.6400
2022-10-31T07:38:50.708Z,970.6600
2022-10-31T07:39:52.917Z,970.6600
2022-10-31T07:40:53.023Z,970.6600
2022-10-31T07:41:55.192Z,970.6600
2022-10-31T07:42:57.455Z,970.6200
2022-10-31T07:43:59.722Z,970.6200
2022-10-31T07:45:02.015Z,970.5800
2022-10-31T07:46:04.360Z,970.5800
2022-10-31T07:47:06.560Z,970.5600
2022-10-31T07:48:08.805Z,970.5400
2022-10-31T07:49:11.082Z,970.5200
2022-10-31T07:50:11.185Z,970.5400
2022-10-31T07:51:13.474Z,970.5400
2022-10-31T07:52:15.732Z,970.5400
2022-10-31T07:53:17.997Z,970.5600
2022-10-31T07:54:20.311Z,970.5400
2022-10-31T07:55:22.604Z,970.5400
2022-10-31T07:56:24.912Z,970.5400
2022-10-31T07:57:30.669Z,970.5400
2022-10-31T07:58:29.447Z,970.5400
2022-10-31T07:59:31.715Z,970.5400
2022-10-31T08:00:33.962Z,970.5200
2022-10-31T08:01:36.109Z,970.5400
2022-10-31T08:02:38.266Z,970.5600
2022-10-31T08:03:40.519Z,970.5600
2022-10-31T08:04:42.745Z,970.5800
2022-10-31T08:05:44.984Z,970.6000
2022-10-31T08:06:47.297Z,970.5800
2022-10-31T08:07:47.384Z,970.5800
2022-10-31T08:08:49.658Z,970.5800
2022-10-31T08:09:51.915Z,970.6000
2022-10-31T08:10:54.125Z,970.5800
2022-10-31T08:11:56.419Z,970.5800
2022-10-31T08:12:58.650Z,970.6000
2022-10-31T08:14:00.925Z,970.6000
2022-10-31T08:15:03.156Z,970.6200
2022-10-31T08:16:05.396Z,970.6400
2022-10-31T08:17:07.716Z,970.6600
2022-10-31T08:18:07.740Z,970.6800
2022-10-31T08:19:10.019Z,970.7000
2022-10-31T08:20:12.259Z,970.6800
2022-10-31T08:21:14.527Z,970.6800
2022-10-31T08:22:16.855Z,970.6600
2022-10-31T08:23:19.103Z,970.6600
2022-10-31T08:24:21.401Z,970.6200
2022-10-31T08:25:23.680Z,970.6200
2022-10-31T08:26:23.807Z,970.6000
2022-10-31T08:27:26.100Z,970.5400
2022-10-31T08:28:28.315Z,970.5200
2022-10-31T08:29:30.596Z,970.5000
2022-10-31T08:30:30.742Z,970.4800
2022-10-31T08:31:34.478Z,970.4600
2022-10-31T08:32:33.254Z,970.4600
2022-10-31T08:33:35.501Z,970.4400
2022-10-31T08:34:37.789Z,970.4600
2022-10-31T08:35:40.039Z,970.5000
2022-10-31T08:36:42.272Z,970.4600
2022-10-31T08:37:44.654Z,970.4800
2022-10-31T08:38:46.783Z,970.4800
2022-10-31T08:39:49.040Z,970.4800
2022-10-31T08:40:49.144Z,970.5200
2022-10-31T08:41:51.425Z,970.5000
2022-10-31T08:42:53.774Z,970.4800
2022-10-31T08:43:56.071Z,970.4800
2022-10-31T08:44:58.394Z,970.5200
2022-10-31T08:46:00.676Z,970.5200
2022-10-31T08:47:02.953Z,970.5200
2022-10-31T08:48:03.727Z,970.5200
2022-10-31T08:49:05.481Z,970.5000
2022-10-31T08:50:07.806Z,970.5000
2022-10-31T08:51:10.098Z,970.5200
2022-10-31T08:52:14.616Z,970.5200
2022-10-31T08:53:14.809Z,970.5000
2022-10-31T08:54:14.956Z,970.4800
2022-10-31T08:55:17.304Z,970.4400
2022-10-31T08:56:19.643Z,970.4400
2022-10-31T08:57:22.050Z,970.4400
2022-10-31T08:58:24.364Z,970.3800
2022-10-31T08:59:24.537Z,970.3400
2022-10-31T09:00:26.887Z,970.3600
2022-10-31T09:01:29.395Z,970.3600
2022-10-31T09:02:31.487Z,970.3600
2022-10-31T09:03:33.826Z,970.3800
2022-10-31T09:04:33.921Z,970.3600
2022-10-31T09:05:36.239Z,970.3600
2022-10-31T09:06:46.370Z,970.3800
2022-10-31T09:07:40.607Z,970.3600
2022-10-31T09:08:42.988Z,970.3100
2022-10-31T09:09:45.141Z,970.2700
2022-10-31T09:10:47.400Z,970.2700
2022-10-31T09:11:49.689Z,970.2900
2022-10-31T09:12:51.950Z,970.3400
2022-10-31T09:13:52.091Z,970.3600
2022-10-31T09:14:54.341Z,970.3600
2022-10-31T09:15:56.635Z,970.4000
2022-10-31T09:16:58.910Z,970.4000
2022-10-31T09:18:01.471Z,970.4200
2022-10-31T09:19:06.234Z,970.4400
2022-10-31T09:20:05.734Z,970.4000
2022-10-31T09:21:05.881Z,970.3800
2022-10-31T09:22:08.170Z,970.4000
2022-10-31T09:23:10.469Z,970.4000
2022-10-31T09:24:12.759Z,970.4200
2022-10-31T09:25:15.051Z,970.4200
2022-10-31T09:26:17.350Z,970.4000
2022-10-31T09:27:19.637Z,970.3800
2022-10-31T09:28:19.810Z,970.3400
2022-10-31T09:29:22.105Z,970.3200
2022-10-31T09:30:24.416Z,970.2900
2022-10-31T09:31:26.731Z,970.2700
2022-10-31T09:32:29.046Z,970.2700
2022-10-31T09:33:31.362Z,970.2700
2022-10-31T09:34:31.570Z,970.2500
2022-10-31T09:35:33.814Z,970.2500
2022-10-31T09:36:36.111Z,970.1900
2022-10-31T09:37:38.410Z,970.1500
2022-10-31T09:38:40.748Z,970.1500
2022-10-31T09:39:43.166Z,970.1500
2022-10-31T09:40:45.467Z,970.1500
2022-10-31T09:41:48.617Z,970.1500
2022-10-31T09:42:50.161Z,970.1700
2022-10-31T09:43:52.519Z,970.1900
2022-10-31T09:44:52.758Z,970.1700
2022-10-31T09:45:54.970Z,970.1300
2022-10-31T09:46:57.306Z,970.1500
2022-10-31T09:47:59.873Z,970.1300
2022-10-31T09:49:01.937Z,970.1100
2022-10-31T09:50:04.434Z,970.0900
2022-10-31T09:51:04.481Z,970.0700
2022-10-31T09:53:22.130Z,970.0700
2022-10-31T09:54:24.334Z,970.0500
2022-10-31T09:55:26.646Z,970.0100
2022-10-31T09:56:28.910Z,970.0100
2022-10-31T09:57:31.090Z,969.9300
2022-10-31T09:58:35.455Z,969.9300
2022-10-31T09:59:35.379Z,969.9300
2022-10-31T10:00:37.633Z,969.9500
2022-10-31T10:01:39.835Z,969.9500
2022-10-31T10:02:41.890Z,969.9700
2022-10-31T10:03:44.076Z,969.9900
2022-10-31T10:04:46.256Z,969.9700
2022-10-31T10:05:46.370Z,969.9900
2022-10-31T10:06:48.482Z,969.9500
2022-10-31T10:07:50.693Z,969.9500
2022-10-31T10:08:52.909Z,969.8900
2022-10-31T10:09:55.089Z,969.8700
2022-10-31T10:10:57.322Z,969.8500
2022-10-31T10:11:59.487Z,969.8700
2022-10-31T10:13:03.590Z,969.8500
2022-10-31T10:14:03.893Z,969.8400
2022-10-31T10:15:06.097Z,969.8500
2022-10-31T10:16:08.350Z,969.8700
2022-10-31T10:17:10.531Z,969.8500
2022-10-31T10:18:12.740Z,969.8400
2022-10-31T10:19:14.944Z,969.8400
2022-10-31T10:20:15.057Z,969.8000
2022-10-31T10:21:17.258Z,969.7600
2022-10-31T10:22:19.257Z,969.7600
2022-10-31T10:23:21.402Z,969.7200
2022-10-31T10:24:23.573Z,969.7000
2022-10-31T10:25:25.777Z,969.7000
2022-10-31T10:26:28.037Z,969.6800
2022-10-31T10:27:30.103Z,969.6800
2022-10-31T10:28:32.319Z,969.6400
2022-10-31T10:29:34.517Z,969.6600
2022-10-31T10:30:36.738Z,969.6400
2022-10-31T10:31:38.987Z,969.6200
2022-10-31T10:32:41.128Z,969.6600
2022-10-31T10:33:43.348Z,969.6800
2022-10-31T10:34:45.554Z,969.7200
2022-10-31T10:35:47.758Z,969.7200
2022-10-31T10:36:50.029Z,969.7200
2022-10-31T10:37:52.184Z,969.7000
2022-10-31T10:38:53.280Z,969.6800
2022-10-31T10:39:54.478Z,969.7000
2022-10-31T10:40:56.697Z,969.6600
2022-10-31T10:41:59.057Z,969.6400
2022-10-31T10:43:01.322Z,969.6800
2022-10-31T10:44:03.586Z,969.7200
2022-10-31T10:45:05.888Z,969.7400
2022-10-31T10:46:11.665Z,969.7600
2022-10-31T10:47:10.607Z,969.7600
2022-10-31T10:48:12.762Z,969.7200
2022-10-31T10:49:12.873Z,969.7400
2022-10-31T10:50:15.155Z,969.7200
2022-10-31T10:51:38.607Z,969.7400
2022-10-31T10:52:39.657Z,969.7000
2022-10-31T10:53:19.781Z,969.7200
2022-10-31T10:54:22.053Z,969.6600
2022-10-31T10:55:24.334Z,969.6400
2022-10-31T10:56:26.653Z,969.5200
2022-10-31T10:57:28.943Z,969.5400
2022-10-31T10:58:31.222Z,969.5200
2022-10-31T10:59:33.476Z,969.5400
2022-10-31T11:00:33.682Z,969.5200
2022-10-31T11:01:35.928Z,969.5200
2022-10-31T11:02:38.297Z,969.5400
2022-10-31T11:03:40.585Z,969.5200
2022-10-31T11:04:42.900Z,969.5400
2022-10-31T11:05:45.171Z,969.6200
2022-10-31T11:06:45.309Z,969.5400
2022-10-31T11:07:47.634Z,969.5200
2022-10-31T11:08:49.845Z,969.5200
2022-10-31T11:09:52.110Z,969.5000
2022-10-31T11:10:54.385Z,969.5000
2022-10-31T11:11:56.669Z,969.5200
2022-10-31T11:12:59.399Z,969.5400
2022-10-31T11:14:01.220Z,969.6400
2022-10-31T11:15:01.361Z,969.6200
2022-10-31T11:17:17.786Z,969.5000
2022-10-31T11:18:19.019Z,969.5000
2022-10-31T11:19:21.201Z,969.5000
2022-10-31T11:20:21.401Z,969.5000
2022-10-31T11:21:23.556Z,969.5400
2022-10-31T11:22:25.793Z,969.5000
2022-10-31T11:23:28.063Z,969.5400
2022-10-31T11:24:30.293Z,969.5200
2022-10-31T11:25:32.592Z,969.5200
2022-10-31T11:26:34.897Z,969.4800
2022-10-31T11:27:37.203Z,969.4600
2022-10-31T11:28:37.394Z,969.4200
2022-10-31T11:29:39.673Z,969.4000
2022-10-31T11:30:41.956Z,969.3600
2022-10-31T11:31:44.262Z,969.3600
2022-10-31T11:32:46.600Z,969.3800
2022-10-31T11:33:48.966Z,969.3800
2022-10-31T11:34:49.050Z,969.4000
2022-10-31T11:35:53.598Z,969.3600
2022-10-31T11:36:53.708Z,969.3400
2022-10-31T11:37:56.007Z,969.2600
2022-10-31T11:38:58.388Z,969.2800
2022-10-31T11:40:00.597Z,969.2800
2022-10-31T11:41:02.843Z,969.2600
2022-10-31T11:42:08.552Z,969.2400
2022-10-31T11:43:05.267Z,969.2300
2022-10-31T11:44:07.628Z,969.2300
2022-10-31T11:45:09.840Z,969.2100
2022-10-31T11:46:12.073Z,969.2300
2022-10-31T11:47:14.391Z,969.2300
2022-10-31T11:48:16.716Z,969.2400
2022-10-31T11:49:16.985Z,969.2400
2022-10-31T11:50:19.173Z,969.2300
2022-10-31T11:51:21.467Z,969.2100
2022-10-31T11:52:21.599Z,969.2100
2022-10-31T11:53:22.764Z,969.2300
2022-10-31T11:54:25.096Z,969.1900
2022-10-31T11:55:27.329Z,969.2300
2022-10-31T11:56:29.619Z,969.2300
2022-10-31T11:57:31.917Z,969.2100
2022-10-31T11:58:34.198Z,969.1900
2022-10-31T11:59:36.505Z,969.1700
2022-10-31T12:00:36.570Z,969.1300
2022-10-31T12:01:44.048Z,969.0500
2022-10-31T12:02:41.071Z,968.9900
2022-10-31T12:03:43.303Z,968.9300
2022-10-31T12:04:45.707Z,968.9100
2022-10-31T12:05:47.790Z,968.8700
2022-10-31T12:06:50.109Z,968.8900
2022-10-31T12:07:52.323Z,968.9300
2022-10-31T12:08:52.442Z,968.9100
2022-10-31T12:09:54.887Z,968.9300
2022-10-31T12:10:56.995Z,968.9300
2022-10-31T12:11:59.318Z,968.9100
2022-10-31T12:12:59.691Z,968.8900